createdAt,value
2018-11-26T00:00:36.542Z,99.90
2018-11-26T00:03:08.913Z,99.90
2018-11-26T00:05:37.974Z,99.90
2018-11-26T00:08:07.459Z,99.90
2018-11-26T00:10:46.862Z,99.90
2018-11-26T00:13:14.996Z,99.90
2018-11-26T00:15:44.108Z,99.90
2018-11-26T00:18:12.270Z,99.90
2018-11-26T00:20:40.406Z,99.90
2018-11-26T00:23:08.541Z,99.90
2018-11-26T00:25:36.749Z,99.90
2018-11-26T00:28:05.086Z,99.90
2018-11-26T00:30:33.198Z,99.90
2018-11-26T00:33:01.315Z,99.90
2018-11-26T00:35:29.433Z,99.90
2018-11-26T00:37:57.848Z,99.90
2018-11-26T00:40:25.995Z,99.90
2018-11-26T00:42:54.132Z,99.90
2018-11-26T00:45:22.276Z,99.90
2018-11-26T00:47:50.448Z,99.90
2018-11-26T00:50:18.560Z,99.90
2018-11-26T00:52:46.700Z,99.90
2018-11-26T00:55:14.831Z,99.90
2018-11-26T00:57:42.988Z,99.90
2018-11-26T01:00:12.180Z,99.90
2018-11-26T01:02:40.340Z,99.90
2018-11-26T01:05:11.195Z,99.90
2018-11-26T01:07:39.352Z,99.90
2018-11-26T01:10:07.489Z,99.90
2018-11-26T01:12:36.051Z,99.90
2018-11-26T01:15:04.244Z,99.90
2018-11-26T01:17:32.396Z,99.90
2018-11-26T01:20:00.569Z,99.90
2018-11-26T01:22:28.687Z,99.90
2018-11-26T01:24:56.829Z,99.90
2018-11-26T01:27:25.005Z,99.90
2018-11-26T01:29:53.141Z,99.90
2018-11-26T01:32:21.310Z,99.90
2018-11-26T01:34:49.509Z,99.90
2018-11-26T01:37:17.807Z,99.90
2018-11-26T01:39:45.937Z,99.90
2018-11-26T01:42:14.430Z,99.90
2018-11-26T01:44:42.559Z,99.90
2018-11-26T01:47:10.678Z,99.90
2018-11-26T01:49:38.813Z,99.90
2018-11-26T01:52:06.980Z,99.90
2018-11-26T01:54:35.097Z,99.90
2018-11-26T01:57:03.407Z,99.90
2018-11-26T01:59:31.548Z,99.90
2018-11-26T02:01:59.728Z,99.90
2018-11-26T02:04:27.844Z,99.90
2018-11-26T02:06:56.035Z,99.90
2018-11-26T02:09:24.189Z,99.90
2018-11-26T02:11:52.310Z,99.90
2018-11-26T02:14:20.458Z,99.90
2018-11-26T02:16:48.603Z,99.90
2018-11-26T02:19:16.706Z,99.90
2018-11-26T02:21:44.945Z,99.90
2018-11-26T02:24:13.084Z,99.90
2018-11-26T02:26:41.211Z,99.90
2018-11-26T02:29:09.326Z,99.90
2018-11-26T02:31:37.446Z,99.90
2018-11-26T02:34:05.579Z,99.90
2018-11-26T02:36:33.706Z,99.90
2018-11-26T02:39:01.814Z,99.90
2018-11-26T02:41:29.957Z,99.90
2018-11-26T02:43:58.064Z,99.90
2018-11-26T02:46:26.265Z,99.90
2018-11-26T02:48:54.389Z,99.90
2018-11-26T02:51:22.518Z,99.90
2018-11-26T02:53:50.648Z,99.90
2018-11-26T02:56:18.803Z,99.90
2018-11-26T02:58:47.341Z,99.90
2018-11-26T03:01:15.727Z,99.90
2018-11-26T03:03:44.550Z,99.90
2018-11-26T03:06:12.725Z,99.90
2018-11-26T03:08:40.861Z,99.90
2018-11-26T03:11:09.024Z,99.90
2018-11-26T03:13:37.249Z,99.90
2018-11-26T03:16:05.938Z,99.90
2018-11-26T03:18:34.079Z,99.90
2018-11-26T03:21:03.270Z,99.90
2018-11-26T03:23:31.397Z,99.90
2018-11-26T03:25:59.843Z,99.90
2018-11-26T03:28:28.008Z,99.90
2018-11-26T03:30:56.154Z,99.90
2018-11-26T03:33:24.281Z,99.90
2018-11-26T03:35:52.781Z,99.90
2018-11-26T03:38:29.183Z,99.90
2018-11-26T03:40:57.414Z,99.90
2018-11-26T03:43:25.649Z,99.90
2018-11-26T03:45:53.812Z,99.90
2018-11-26T03:48:21.964Z,99.90
2018-11-26T03:50:50.107Z,99.90
2018-11-26T03:53:18.229Z,99.90
2018-11-26T03:55:46.353Z,99.90
2018-11-26T03:58:14.531Z,99.90
2018-11-26T04:00:42.682Z,99.90
2018-11-26T04:03:10.858Z,99.90
2018-11-26T04:05:39.014Z,99.90
2018-11-26T04:08:07.177Z,99.90
2018-11-26T04:10:35.300Z,99.90
2018-11-26T04:13:03.443Z,99.90
2018-11-26T04:15:31.573Z,99.90
2018-11-26T04:17:59.749Z,99.90
2018-11-26T04:20:27.891Z,99.90
2018-11-26T04:22:56.040Z,99.90
2018-11-26T04:25:24.148Z,99.90
2018-11-26T04:27:53.289Z,99.90
2018-11-26T04:30:21.454Z,99.90
2018-11-26T04:32:49.597Z,99.90
2018-11-26T04:35:17.704Z,99.90
2018-11-26T04:37:45.830Z,99.90
2018-11-26T04:40:14.014Z,99.90
2018-11-26T04:42:42.186Z,99.90
2018-11-26T04:45:10.610Z,99.90
2018-11-26T04:47:38.899Z,99.90
2018-11-26T04:50:08.954Z,99.90
2018-11-26T04:52:37.072Z,99.90
2018-11-26T04:55:05.312Z,99.90
2018-11-26T04:57:34.208Z,99.90
2018-11-26T05:00:02.056Z,99.90
2018-11-26T05:02:30.524Z,99.90
2018-11-26T05:04:58.669Z,99.90
2018-11-26T05:07:26.841Z,99.90
2018-11-26T05:09:55.037Z,99.90
2018-11-26T05:12:23.152Z,99.90
2018-11-26T05:14:51.295Z,99.90
2018-11-26T05:17:19.457Z,99.90
2018-11-26T05:19:47.625Z,99.90
2018-11-26T05:22:15.765Z,99.90
2018-11-26T05:24:44.828Z,99.90
2018-11-26T05:27:12.973Z,99.90
2018-11-26T05:29:41.123Z,99.90
2018-11-26T05:32:09.311Z,99.90
2018-11-26T05:34:37.459Z,99.90
2018-11-26T05:37:06.129Z,99.90
2018-11-26T05:39:34.500Z,99.90
2018-11-26T05:42:02.636Z,99.90
2018-11-26T05:44:30.904Z,99.90
2018-11-26T05:46:59.028Z,99.90
2018-11-26T05:49:27.133Z,99.90
2018-11-26T05:51:55.520Z,99.90
2018-11-26T05:54:23.632Z,99.90
2018-11-26T05:56:51.893Z,99.90
2018-11-26T05:59:20.861Z,99.90
2018-11-26T06:01:49.037Z,99.90
2018-11-26T06:04:17.170Z,99.90
2018-11-26T06:06:45.265Z,99.90
2018-11-26T06:09:13.401Z,99.90
2018-11-26T06:11:41.568Z,99.90
2018-11-26T06:14:09.719Z,99.90
2018-11-26T06:16:37.838Z,99.90
2018-11-26T06:19:06.090Z,99.90
2018-11-26T06:21:34.202Z,99.90
2018-11-26T06:24:02.373Z,99.90
2018-11-26T06:26:30.473Z,99.90
2018-11-26T06:28:58.589Z,99.90
2018-11-26T06:31:26.761Z,99.90
2018-11-26T06:33:55.444Z,99.90
2018-11-26T06:36:23.640Z,99.90
2018-11-26T06:38:51.756Z,99.90
2018-11-26T06:41:19.892Z,99.90
2018-11-26T06:43:48.018Z,99.90
2018-11-26T06:46:16.135Z,99.90
2018-11-26T06:48:45.372Z,99.90
2018-11-26T06:51:12.929Z,99.90
2018-11-26T06:53:41.054Z,99.90
2018-11-26T06:56:09.169Z,99.90
2018-11-26T06:58:37.354Z,99.90
2018-11-26T07:01:05.682Z,99.90
2018-11-26T07:03:33.800Z,99.90
2018-11-26T07:06:02.064Z,99.90
2018-11-26T07:08:30.513Z,99.90
2018-11-26T07:10:58.636Z,99.90
2018-11-26T07:13:26.765Z,99.90
2018-11-26T07:15:54.918Z,99.90
2018-11-26T07:18:23.088Z,99.90
2018-11-26T07:20:51.221Z,99.90
2018-11-26T07:23:19.353Z,99.90
2018-11-26T07:25:47.650Z,99.90
2018-11-26T07:28:15.881Z,99.90
2018-11-26T07:30:44.937Z,99.90
2018-11-26T07:33:13.077Z,99.90
2018-11-26T07:35:41.235Z,99.90
2018-11-26T07:38:09.370Z,99.90
2018-11-26T07:40:37.514Z,99.90
2018-11-26T07:43:09.156Z,99.90
2018-11-26T07:45:37.293Z,99.90
2018-11-26T07:48:06.329Z,99.90
2018-11-26T07:50:35.429Z,99.90
2018-11-26T07:53:04.221Z,99.90
2018-11-26T07:55:32.384Z,99.90
2018-11-26T07:58:00.508Z,99.90
2018-11-26T08:00:28.647Z,99.90
2018-11-26T08:02:56.784Z,99.90
2018-11-26T08:05:24.929Z,99.90
2018-11-26T08:07:53.088Z,99.90
2018-11-26T08:10:22.190Z,99.90
2018-11-26T08:12:51.490Z,99.90
2018-11-26T08:15:22.720Z,99.90
2018-11-26T08:17:50.845Z,99.90
2018-11-26T08:20:19.004Z,99.90
2018-11-26T08:22:47.164Z,99.90
2018-11-26T08:25:16.856Z,99.90
2018-11-26T08:27:46.001Z,99.90
2018-11-26T08:30:17.909Z,99.90
2018-11-26T08:32:48.129Z,99.90
2018-11-26T08:35:16.732Z,99.90
2018-11-26T08:37:50.449Z,99.90
2018-11-26T08:40:24.069Z,99.90
2018-11-26T08:43:56.571Z,99.90
2018-11-26T08:46:30.187Z,99.90
2018-11-26T08:49:02.228Z,99.90
2018-11-26T08:51:30.491Z,99.90
2018-11-26T08:53:58.614Z,99.90
2018-11-26T08:56:26.779Z,99.90
2018-11-26T08:58:54.840Z,99.90
2018-11-26T09:01:28.310Z,99.90
2018-11-26T09:03:56.459Z,99.90
2018-11-26T09:06:24.619Z,99.90
2018-11-26T09:08:52.959Z,99.90
2018-11-26T09:11:21.077Z,99.90
2018-11-26T09:13:49.219Z,99.90
2018-11-26T09:16:17.350Z,99.90
2018-11-26T09:18:45.466Z,99.90
2018-11-26T09:21:13.620Z,99.90
2018-11-26T09:23:41.742Z,99.90
2018-11-26T09:26:09.865Z,99.90
2018-11-26T09:28:37.990Z,99.90
2018-11-26T09:31:06.176Z,99.90
2018-11-26T09:33:34.289Z,99.90
2018-11-26T09:36:02.441Z,99.90
2018-11-26T09:38:30.540Z,99.90
2018-11-26T09:40:58.695Z,99.90
2018-11-26T09:43:26.801Z,99.90
2018-11-26T09:45:54.977Z,99.90
2018-11-26T09:48:23.129Z,99.90
2018-11-26T09:50:51.275Z,99.90
2018-11-26T09:53:19.373Z,99.90
2018-11-26T09:55:47.492Z,99.90
2018-11-26T09:58:15.609Z,99.90
2018-11-26T10:00:43.744Z,99.90
2018-11-26T10:03:11.909Z,99.90
2018-11-26T10:05:40.071Z,99.90
2018-11-26T10:08:08.235Z,99.90
2018-11-26T10:10:36.371Z,99.90
2018-11-26T10:13:04.513Z,99.90
2018-11-26T10:15:32.937Z,99.90
2018-11-26T10:18:01.104Z,99.90
2018-11-26T10:20:29.224Z,99.90
2018-11-26T10:22:57.338Z,99.90
2018-11-26T10:25:25.469Z,99.90
2018-11-26T10:27:53.596Z,99.90
2018-11-26T10:30:23.412Z,99.90
2018-11-26T10:32:51.811Z,99.90
2018-11-26T10:35:20.392Z,99.90
2018-11-26T10:37:48.544Z,99.90
2018-11-26T10:40:18.575Z,99.90
2018-11-26T10:42:46.716Z,99.90
2018-11-26T10:45:15.969Z,99.90
2018-11-26T10:47:44.104Z,99.90
2018-11-26T10:50:17.010Z,99.90
2018-11-26T10:52:48.707Z,99.90
2018-11-26T10:55:23.017Z,99.90
2018-11-26T10:57:51.140Z,99.90
2018-11-26T11:00:24.807Z,99.90
2018-11-26T11:02:53.152Z,99.90
2018-11-26T11:05:21.269Z,99.90
2018-11-26T11:07:49.412Z,99.90
2018-11-26T11:10:33.049Z,99.90
2018-11-26T11:13:01.197Z,99.90
2018-11-26T11:15:29.353Z,99.90
2018-11-26T11:17:57.472Z,99.50
2018-11-26T11:20:27.149Z,99.40
2018-11-26T11:22:55.317Z,99.40
2018-11-26T11:25:23.681Z,99.40
2018-11-26T11:27:51.987Z,99.40
2018-11-26T11:30:24.850Z,99.00
2018-11-26T11:32:53.411Z,98.70
2018-11-26T11:35:21.561Z,98.50
2018-11-26T11:37:50.494Z,98.30
2018-11-26T11:40:21.293Z,98.50
2018-11-26T11:42:49.607Z,98.40
2018-11-26T11:45:18.054Z,98.10
2018-11-26T11:47:46.174Z,98.30
2018-11-26T11:50:15.578Z,98.10
2018-11-26T11:52:43.755Z,98.00
2018-11-26T11:55:16.691Z,97.60
2018-11-26T11:57:45.478Z,97.70
2018-11-26T12:00:32.762Z,97.30
2018-11-26T12:03:01.895Z,97.30
2018-11-26T12:05:30.090Z,96.80
2018-11-26T12:07:58.287Z,96.50
2018-11-26T12:10:26.431Z,96.20
2018-11-26T12:12:54.600Z,95.40
2018-11-26T12:15:22.723Z,95.20
2018-11-26T12:17:50.861Z,95.30
2018-11-26T12:20:18.986Z,95.60
2018-11-26T12:22:47.133Z,95.30
2018-11-26T12:25:16.383Z,95.10
2018-11-26T12:27:45.435Z,94.70
2018-11-26T12:30:14.898Z,95.10
2018-11-26T12:32:43.022Z,94.90
2018-11-26T12:35:11.166Z,94.80
2018-11-26T12:37:39.301Z,94.80
2018-11-26T12:40:09.946Z,94.40
2018-11-26T12:42:38.130Z,94.60
2018-11-26T12:45:13.196Z,95.10
2018-11-26T12:47:41.353Z,95.10
2018-11-26T12:50:09.539Z,95.50
2018-11-26T12:52:37.937Z,95.20
2018-11-26T12:55:09.039Z,95.30
2018-11-26T12:57:38.192Z,95.80
2018-11-26T13:00:11.665Z,95.90
2018-11-26T13:02:39.920Z,96.00
2018-11-26T13:05:11.234Z,95.90
2018-11-26T13:07:39.364Z,96.00
2018-11-26T13:10:16.137Z,96.30
2018-11-26T13:12:44.678Z,96.30
2018-11-26T13:15:14.077Z,96.10
2018-11-26T13:17:42.223Z,96.20
2018-11-26T13:20:12.906Z,96.00
2018-11-26T13:22:41.124Z,96.10
2018-11-26T13:25:12.542Z,96.00
2018-11-26T13:27:42.129Z,96.20
2018-11-26T13:30:13.570Z,96.30
2018-11-26T13:32:41.956Z,96.00
2018-11-26T13:35:11.342Z,96.20
2018-11-26T13:37:39.455Z,96.20
2018-11-26T13:40:12.283Z,96.10
2018-11-26T13:42:40.568Z,95.60
2018-11-26T13:45:13.156Z,96.00
2018-11-26T13:47:41.559Z,96.20
2018-11-26T13:50:50.594Z,96.20
2018-11-26T13:53:18.732Z,95.90
2018-11-26T13:55:46.839Z,96.00
2018-11-26T13:58:14.938Z,95.70
2018-11-26T14:00:43.085Z,96.10
2018-11-26T14:03:11.258Z,96.30
2018-11-26T14:05:39.413Z,96.00
2018-11-26T14:08:07.564Z,96.10
2018-11-26T14:10:35.948Z,96.00
2018-11-26T14:13:11.114Z,96.10
2018-11-26T14:15:39.250Z,96.30
2018-11-26T14:18:07.382Z,96.30
2018-11-26T14:20:35.548Z,96.40
2018-11-26T14:23:03.729Z,96.30
2018-11-26T14:25:31.888Z,96.30
2018-11-26T14:28:00.027Z,96.70
2018-11-26T14:30:29.108Z,96.30
2018-11-26T14:32:57.374Z,96.40
2018-11-26T14:35:25.531Z,96.70
2018-11-26T14:37:57.733Z,96.60
2018-11-26T14:40:28.310Z,96.70
2018-11-26T14:42:56.453Z,96.90
2018-11-26T14:45:24.552Z,97.00
2018-11-26T14:47:52.765Z,97.00
2018-11-26T14:50:20.879Z,96.70
2018-11-26T14:52:49.836Z,96.60
2018-11-26T14:55:26.474Z,96.60
2018-11-26T14:57:54.610Z,96.70
2018-11-26T15:00:22.734Z,96.80
2018-11-26T15:02:51.279Z,96.80
2018-11-26T15:05:20.796Z,96.80
2018-11-26T15:07:49.767Z,96.90
2018-11-26T15:10:19.882Z,97.00
2018-11-26T15:12:48.200Z,97.00
2018-11-26T15:15:18.662Z,96.80
2018-11-26T15:17:46.837Z,96.60
2018-11-26T15:20:16.223Z,96.70
2018-11-26T15:22:44.369Z,96.70
2018-11-26T15:25:14.706Z,96.80
2018-11-26T15:27:42.951Z,96.70
2018-11-26T15:30:14.141Z,96.80
2018-11-26T15:32:42.279Z,96.40
2018-11-26T15:35:13.429Z,96.30
2018-11-26T15:37:41.689Z,96.50
2018-11-26T15:40:10.900Z,96.30
2018-11-26T15:42:39.103Z,96.60
2018-11-26T15:45:14.443Z,96.80
2018-11-26T15:47:42.615Z,96.70
2018-11-26T15:50:10.839Z,96.80
2018-11-26T15:52:38.992Z,96.80
2018-11-26T15:55:09.051Z,96.90
2018-11-26T15:57:37.171Z,97.00
2018-11-26T16:00:11.378Z,96.80
2018-11-26T16:02:39.510Z,97.00
2018-11-26T16:05:09.766Z,96.90
2018-11-26T16:07:38.001Z,96.90
2018-11-26T16:10:08.470Z,96.60
2018-11-26T16:12:36.602Z,96.50
2018-11-26T16:15:06.566Z,96.70
2018-11-26T16:17:34.747Z,96.70
2018-11-26T16:20:02.909Z,96.70
2018-11-26T16:22:31.039Z,96.50
2018-11-26T16:24:59.274Z,96.50
2018-11-26T16:27:27.384Z,96.30
2018-11-26T16:29:55.510Z,96.40
2018-11-26T16:32:23.697Z,96.40
2018-11-26T16:34:51.878Z,96.70
2018-11-26T16:37:20.027Z,96.70
2018-11-26T16:39:48.151Z,96.60
2018-11-26T16:42:16.282Z,96.80
2018-11-26T16:44:44.421Z,96.70
2018-11-26T16:47:12.549Z,96.60
2018-11-26T16:49:40.681Z,96.50
2018-11-26T16:52:08.822Z,96.50
2018-11-26T16:54:36.958Z,96.60
2018-11-26T16:57:05.509Z,96.60
2018-11-26T16:59:33.630Z,96.40
2018-11-26T17:02:01.774Z,96.50
2018-11-26T17:04:29.895Z,96.70
2018-11-26T17:06:58.006Z,96.50
2018-11-26T17:09:26.127Z,96.60
2018-11-26T17:11:54.273Z,96.50
2018-11-26T17:14:22.447Z,96.60
2018-11-26T17:16:50.516Z,96.50
2018-11-26T17:19:18.645Z,96.40
2018-11-26T17:21:47.693Z,96.80
2018-11-26T17:24:15.818Z,96.60
2018-11-26T17:26:43.965Z,96.60
2018-11-26T17:29:12.104Z,96.80
2018-11-26T17:31:40.215Z,96.50
2018-11-26T17:34:08.354Z,96.60
2018-11-26T17:36:36.506Z,96.50
2018-11-26T17:39:07.511Z,96.50
2018-11-26T17:41:35.630Z,96.30
2018-11-26T17:44:03.805Z,96.50
2018-11-26T17:46:31.977Z,96.90
2018-11-26T17:49:00.144Z,96.30
2018-11-26T17:51:28.271Z,96.60
2018-11-26T17:53:56.397Z,96.10
2018-11-26T17:56:24.626Z,96.00
2018-11-26T17:58:52.794Z,95.90
2018-11-26T18:01:27.940Z,95.90
2018-11-26T18:03:56.094Z,95.70
2018-11-26T18:06:24.247Z,95.70
2018-11-26T18:08:52.652Z,96.30
2018-11-26T18:11:20.787Z,95.70
2018-11-26T18:13:48.922Z,95.70
2018-11-26T18:16:17.056Z,95.80
2018-11-26T18:18:45.191Z,96.00
2018-11-26T18:21:13.334Z,96.30
2018-11-26T18:23:41.487Z,96.20
2018-11-26T18:26:09.631Z,96.40
2018-11-26T18:28:37.763Z,96.10
2018-11-26T18:31:06.602Z,96.00
2018-11-26T18:33:34.826Z,96.10
2018-11-26T18:36:03.022Z,96.30
2018-11-26T18:38:31.141Z,96.10
2018-11-26T18:40:59.295Z,95.90
2018-11-26T18:43:27.448Z,96.00
2018-11-26T18:45:55.591Z,95.80
2018-11-26T18:48:23.718Z,95.70
2018-11-26T18:50:51.864Z,96.10
2018-11-26T18:53:19.993Z,95.60
2018-11-26T18:55:48.169Z,95.50
2018-11-26T18:58:16.308Z,95.60
2018-11-26T19:00:47.082Z,95.50
2018-11-26T19:03:18.754Z,95.60
2018-11-26T19:05:49.038Z,95.70
2018-11-26T19:08:17.698Z,95.60
2018-11-26T19:10:46.373Z,95.70
2018-11-26T19:13:23.673Z,95.60
2018-11-26T19:15:53.951Z,95.70
2018-11-26T19:18:24.553Z,95.70
2018-11-26T19:20:53.032Z,95.80
2018-11-26T19:23:21.506Z,95.60
2018-11-26T19:25:50.942Z,95.50
2018-11-26T19:28:20.468Z,95.40
2018-11-26T19:30:48.073Z,95.60
2018-11-26T19:33:16.194Z,95.50
2018-11-26T19:35:44.332Z,95.30
2018-11-26T19:38:12.747Z,95.30
2018-11-26T19:40:41.066Z,95.30
2018-11-26T19:43:09.326Z,96.00
2018-11-26T19:45:37.856Z,95.40
2018-11-26T19:48:06.931Z,95.60
2018-11-26T19:50:35.186Z,95.60
2018-11-26T19:53:03.799Z,95.50
2018-11-26T19:55:31.926Z,95.50
2018-11-26T19:58:00.073Z,95.50
2018-11-26T20:00:29.283Z,95.30
2018-11-26T20:03:18.475Z,95.50
2018-11-26T20:05:59.583Z,95.70
2018-11-26T20:08:27.695Z,95.60
2018-11-26T20:10:56.849Z,95.70
2018-11-26T20:13:24.950Z,95.50
2018-11-26T20:15:53.758Z,95.70
2018-11-26T20:18:21.886Z,95.90
2018-11-26T20:20:50.013Z,95.60
2018-11-26T20:23:18.143Z,95.80
2018-11-26T20:25:46.309Z,95.80
2018-11-26T20:28:14.526Z,95.80
2018-11-26T20:30:42.611Z,95.70
2018-11-26T20:33:10.814Z,95.50
2018-11-26T20:35:38.974Z,95.70
2018-11-26T20:38:08.406Z,95.70
2018-11-26T20:40:36.526Z,95.90
2018-11-26T20:43:06.616Z,96.00
2018-11-26T20:45:34.761Z,96.00
2018-11-26T20:48:03.079Z,95.90
2018-11-26T20:50:31.360Z,96.00
2018-11-26T20:52:59.566Z,95.90
2018-11-26T20:55:27.709Z,95.90
2018-11-26T20:57:56.469Z,96.10
2018-11-26T21:00:25.973Z,96.20
2018-11-26T21:02:55.326Z,96.00
2018-11-26T21:05:23.438Z,96.10
2018-11-26T21:07:51.558Z,96.20
2018-11-26T21:10:19.663Z,96.10
2018-11-26T21:12:48.476Z,96.20
2018-11-26T21:15:17.847Z,96.10
2018-11-26T21:17:47.811Z,96.10
2018-11-26T21:20:18.603Z,95.90
2018-11-26T21:22:47.026Z,95.90
2018-11-26T21:25:16.218Z,96.00
2018-11-26T21:27:44.465Z,96.00
2018-11-26T21:30:13.926Z,96.20
2018-11-26T21:32:42.058Z,96.10
2018-11-26T21:35:11.187Z,96.20
2018-11-26T21:37:40.184Z,96.20
2018-11-26T21:40:09.773Z,96.20
2018-11-26T21:42:37.987Z,96.00
2018-11-26T21:45:16.954Z,96.30
2018-11-26T21:47:45.071Z,96.30
2018-11-26T21:50:14.099Z,96.40
2018-11-26T21:52:42.563Z,96.40
2018-11-26T21:55:12.950Z,96.20
2018-11-26T21:57:41.214Z,96.40
2018-11-26T22:00:16.473Z,96.60
2018-11-26T22:02:44.631Z,96.60
2018-11-26T22:05:12.756Z,96.50
2018-11-26T22:07:40.938Z,96.60
2018-11-26T22:10:10.922Z,96.50
2018-11-26T22:12:39.390Z,96.60
2018-11-26T22:15:10.166Z,96.70
2018-11-26T22:17:38.993Z,96.80
2018-11-26T22:20:13.134Z,96.70
2018-11-26T22:22:41.404Z,96.50
2018-11-26T22:25:10.923Z,96.50
2018-11-26T22:27:39.430Z,96.60
2018-11-26T22:30:16.972Z,96.60
2018-11-26T22:32:45.285Z,96.60
2018-11-26T22:35:13.424Z,96.70
2018-11-26T22:37:41.545Z,96.70
2018-11-26T22:40:11.937Z,96.60
2018-11-26T22:42:40.391Z,96.60
2018-11-26T22:45:17.241Z,96.80
2018-11-26T22:47:48.155Z,96.80
2018-11-26T22:50:16.379Z,96.80
2018-11-26T22:52:44.551Z,97.20
2018-11-26T22:55:13.522Z,96.90
2018-11-26T22:57:42.296Z,96.80
2018-11-26T23:00:16.802Z,96.80
2018-11-26T23:02:44.918Z,96.70
2018-11-26T23:05:13.042Z,96.80
2018-11-26T23:07:41.190Z,96.70
2018-11-26T23:10:09.611Z,96.70
2018-11-26T23:12:37.719Z,96.70
2018-11-26T23:15:08.924Z,96.80
2018-11-26T23:17:37.047Z,96.90
2018-11-26T23:20:07.923Z,97.40
2018-11-26T23:22:36.054Z,97.00
2018-11-26T23:25:04.402Z,97.00
2018-11-26T23:27:32.589Z,97.00
2018-11-26T23:30:00.695Z,97.10
2018-11-26T23:32:28.810Z,97.10
2018-11-26T23:34:56.936Z,97.10
2018-11-26T23:37:25.067Z,97.00
2018-11-26T23:39:53.178Z,97.10
2018-11-26T23:42:21.283Z,97.10
2018-11-26T23:44:49.402Z,97.50
2018-11-26T23:47:17.803Z,97.30
2018-11-26T23:49:45.681Z,97.40
2018-11-26T23:52:13.848Z,97.40
2018-11-26T23:54:42.010Z,97.40
2018-11-26T23:57:10.167Z,97.40
2018-11-26T23:59:38.331Z,97.40
